sensor_id;sensor_type;location;lat;lon;timestamp;P1;durP1;ratioP1;P2;durP2;ratioP2
10120;SDS011;5100;45.176;5.714;2022-12-29T00:01:41;13.20;;;11.43;;
10120;SDS011;5100;45.176;5.714;2022-12-29T00:04:09;13.30;;;11.90;;
10120;SDS011;5100;45.176;5.714;2022-12-29T00:06:39;14.07;;;11.70;;
10120;SDS011;5100;45.176;5.714;2022-12-29T00:09:05;12.93;;;11.53;;
10120;SDS011;5100;45.176;5.714;2022-12-29T00:11:32;12.97;;;11.70;;
10120;SDS011;5100;45.176;5.714;2022-12-29T00:13:58;12.27;;;10.87;;
10120;SDS011;5100;45.176;5.714;2022-12-29T00:16:44;13.50;;;10.97;;
10120;SDS011;5100;45.176;5.714;2022-12-29T00:19:11;13.67;;;11.63;;
10120;SDS011;5100;45.176;5.714;2022-12-29T00:21:57;13.00;;;11.70;;
10120;SDS011;5100;45.176;5.714;2022-12-29T00:24:43;12.87;;;11.60;;
10120;SDS011;5100;45.176;5.714;2022-12-29T00:27:20;11.83;;;10.53;;
10120;SDS011;5100;45.176;5.714;2022-12-29T00:30:08;14.60;;;10.90;;
10120;SDS011;5100;45.176;5.714;2022-12-29T00:32:56;12.43;;;10.70;;
10120;SDS011;5100;45.176;5.714;2022-12-29T00:35:45;11.80;;;10.60;;
10120;SDS011;5100;45.176;5.714;2022-12-29T00:38:17;16.23;;;11.70;;
10120;SDS011;5100;45.176;5.714;2022-12-29T00:41:04;12.13;;;10.87;;
10120;SDS011;5100;45.176;5.714;2022-12-29T00:43:49;13.23;;;10.93;;
10120;SDS011;5100;45.176;5.714;2022-12-29T00:46:33;12.53;;;11.23;;
10120;SDS011;5100;45.176;5.714;2022-12-29T00:49:02;12.37;;;11.07;;
10120;SDS011;5100;45.176;5.714;2022-12-29T00:51:47;12.50;;;11.30;;
10120;SDS011;5100;45.176;5.714;2022-12-29T00:54:16;12.80;;;11.50;;
10120;SDS011;5100;45.176;5.714;2022-12-29T00:56:42;12.87;;;11.50;;
10120;SDS011;5100;45.176;5.714;2022-12-29T00:59:11;13.30;;;11.53;;
10120;SDS011;5100;45.176;5.714;2022-12-29T01:01:38;12.60;;;11.30;;
10120;SDS011;5100;45.176;5.714;2022-12-29T01:04:05;12.73;;;11.43;;
10120;SDS011;5100;45.176;5.714;2022-12-29T01:06:32;13.60;;;12.20;;
10120;SDS011;5100;45.176;5.714;2022-12-29T01:09:00;13.47;;;11.87;;
10120;SDS011;5100;45.176;5.714;2022-12-29T01:11:47;14.10;;;12.67;;
10120;SDS011;5100;45.176;5.714;2022-12-29T01:14:14;15.10;;;13.30;;
10120;SDS011;5100;45.176;5.714;2022-12-29T01:16:40;14.43;;;12.20;;
10120;SDS011;5100;45.176;5.714;2022-12-29T01:19:07;13.60;;;12.20;;
10120;SDS011;5100;45.176;5.714;2022-12-29T01:21:34;13.27;;;11.87;;
10120;SDS011;5100;45.176;5.714;2022-12-29T01:24:00;13.73;;;12.30;;
10120;SDS011;5100;45.176;5.714;2022-12-29T01:26:27;15.10;;;13.50;;
10120;SDS011;5100;45.176;5.714;2022-12-29T01:28:53;15.17;;;13.33;;
10120;SDS011;5100;45.176;5.714;2022-12-29T01:31:20;14.10;;;12.60;;
10120;SDS011;5100;45.176;5.714;2022-12-29T01:33:46;14.23;;;12.73;;
10120;SDS011;5100;45.176;5.714;2022-12-29T01:36:14;13.60;;;12.20;;
10120;SDS011;5100;45.176;5.714;2022-12-29T01:38:42;14.77;;;13.27;;
10120;SDS011;5100;45.176;5.714;2022-12-29T01:41:10;15.17;;;13.67;;
10120;SDS011;5100;45.176;5.714;2022-12-29T01:43:57;14.23;;;12.20;;
10120;SDS011;5100;45.176;5.714;2022-12-29T01:49:18;13.73;;;11.83;;
10120;SDS011;5100;45.176;5.714;2022-12-29T01:51:53;17.10;;;12.80;;
10120;SDS011;5100;45.176;5.714;2022-12-29T01:54:22;14.07;;;12.53;;
10120;SDS011;5100;45.176;5.714;2022-12-29T01:56:57;14.73;;;12.90;;
10120;SDS011;5100;45.176;5.714;2022-12-29T01:59:30;13.67;;;12.10;;
10120;SDS011;5100;45.176;5.714;2022-12-29T02:02:00;14.37;;;11.80;;
10120;SDS011;5100;45.176;5.714;2022-12-29T02:04:29;15.53;;;12.93;;
10120;SDS011;5100;45.176;5.714;2022-12-29T02:06:58;12.90;;;11.60;;
10120;SDS011;5100;45.176;5.714;2022-12-29T02:09:30;16.43;;;13.00;;
10120;SDS011;5100;45.176;5.714;2022-12-29T02:11:57;14.67;;;13.17;;
10120;SDS011;5100;45.176;5.714;2022-12-29T02:14:25;13.87;;;12.43;;
10120;SDS011;5100;45.176;5.714;2022-12-29T02:17:01;13.83;;;12.27;;
10120;SDS011;5100;45.176;5.714;2022-12-29T02:22:39;12.90;;;11.60;;
10120;SDS011;5100;45.176;5.714;2022-12-29T02:41:25;13.03;;;11.17;;
10120;SDS011;5100;45.176;5.714;2022-12-29T02:44:16;12.63;;;10.37;;
10120;SDS011;5100;45.176;5.714;2022-12-29T02:49:45;11.30;;;9.50;;
10120;SDS011;5100;45.176;5.714;2022-12-29T02:52:27;10.10;;;9.10;;
10120;SDS011;5100;45.176;5.714;2022-12-29T02:54:59;9.77;;;8.80;;
10120;SDS011;5100;45.176;5.714;2022-12-29T02:57:33;10.20;;;9.20;;
10120;SDS011;5100;45.176;5.714;2022-12-29T03:00:08;9.33;;;8.43;;
10120;SDS011;5100;45.176;5.714;2022-12-29T03:02:47;12.30;;;9.70;;
10120;SDS011;5100;45.176;5.714;2022-12-29T03:08:50;9.30;;;8.33;;
10120;SDS011;5100;45.176;5.714;2022-12-29T03:11:35;9.00;;;8.10;;
10120;SDS011;5100;45.176;5.714;2022-12-29T03:14:32;9.03;;;8.13;;
10120;SDS011;5100;45.176;5.714;2022-12-29T03:17:38;10.07;;;8.60;;
10120;SDS011;5100;45.176;5.714;2022-12-29T03:20:18;8.73;;;7.93;;
10120;SDS011;5100;45.176;5.714;2022-12-29T03:22:51;9.87;;;8.87;;
10120;SDS011;5100;45.176;5.714;2022-12-29T03:25:28;9.33;;;7.60;;
10120;SDS011;5100;45.176;5.714;2022-12-29T03:28:02;8.97;;;7.80;;
10120;SDS011;5100;45.176;5.714;2022-12-29T03:30:34;9.77;;;7.40;;
10120;SDS011;5100;45.176;5.714;2022-12-29T03:33:04;8.10;;;7.30;;
10120;SDS011;5100;45.176;5.714;2022-12-29T03:35:38;8.70;;;7.87;;
10120;SDS011;5100;45.176;5.714;2022-12-29T03:38:23;9.60;;;8.60;;
10120;SDS011;5100;45.176;5.714;2022-12-29T03:40:55;8.60;;;7.80;;
10120;SDS011;5100;45.176;5.714;2022-12-29T03:43:25;8.40;;;7.60;;
10120;SDS011;5100;45.176;5.714;2022-12-29T03:45:54;9.13;;;8.00;;
10120;SDS011;5100;45.176;5.714;2022-12-29T03:48:20;8.83;;;7.93;;
10120;SDS011;5100;45.176;5.714;2022-12-29T03:50:48;8.50;;;7.70;;
10120;SDS011;5100;45.176;5.714;2022-12-29T03:53:15;8.53;;;7.50;;
10120;SDS011;5100;45.176;5.714;2022-12-29T03:55:41;8.67;;;7.70;;
10120;SDS011;5100;45.176;5.714;2022-12-29T03:58:09;8.03;;;7.23;;
10120;SDS011;5100;45.176;5.714;2022-12-29T04:00:37;8.43;;;7.57;;
10120;SDS011;5100;45.176;5.714;2022-12-29T04:03:04;7.63;;;6.80;;
10120;SDS011;5100;45.176;5.714;2022-12-29T04:05:31;7.93;;;7.13;;
10120;SDS011;5100;45.176;5.714;2022-12-29T04:07:58;8.67;;;7.83;;
10120;SDS011;5100;45.176;5.714;2022-12-29T04:10:25;8.60;;;7.80;;
10120;SDS011;5100;45.176;5.714;2022-12-29T04:12:52;8.43;;;7.10;;
10120;SDS011;5100;45.176;5.714;2022-12-29T04:15:19;7.77;;;6.70;;
10120;SDS011;5100;45.176;5.714;2022-12-29T04:17:46;7.53;;;6.70;;
10120;SDS011;5100;45.176;5.714;2022-12-29T04:20:12;7.80;;;7.00;;
10120;SDS011;5100;45.176;5.714;2022-12-29T04:22:59;7.67;;;6.97;;
10120;SDS011;5100;45.176;5.714;2022-12-29T04:25:27;7.20;;;6.50;;
10120;SDS011;5100;45.176;5.714;2022-12-29T04:27:53;7.20;;;6.50;;
10120;SDS011;5100;45.176;5.714;2022-12-29T04:30:21;7.23;;;6.60;;
10120;SDS011;5100;45.176;5.714;2022-12-29T04:32:48;7.67;;;6.60;;
10120;SDS011;5100;45.176;5.714;2022-12-29T04:35:15;7.43;;;6.57;;
10120;SDS011;5100;45.176;5.714;2022-12-29T04:37:41;7.00;;;6.30;;
10120;SDS011;5100;45.176;5.714;2022-12-29T04:40:08;7.90;;;6.60;;
10120;SDS011;5100;45.176;5.714;2022-12-29T04:42:35;7.30;;;6.60;;
10120;SDS011;5100;45.176;5.714;2022-12-29T04:45:03;7.57;;;6.87;;
10120;SDS011;5100;45.176;5.714;2022-12-29T04:47:30;8.30;;;7.60;;
10120;SDS011;5100;45.176;5.714;2022-12-29T04:49:57;8.03;;;7.33;;
10120;SDS011;5100;45.176;5.714;2022-12-29T04:52:24;8.40;;;7.60;;
10120;SDS011;5100;45.176;5.714;2022-12-29T04:54:51;8.43;;;7.53;;
10120;SDS011;5100;45.176;5.714;2022-12-29T04:57:18;9.33;;;8.43;;
10120;SDS011;5100;45.176;5.714;2022-12-29T04:59:46;9.57;;;8.57;;
10120;SDS011;5100;45.176;5.714;2022-12-29T05:02:13;9.63;;;8.63;;
10120;SDS011;5100;45.176;5.714;2022-12-29T05:04:40;10.00;;;8.90;;
10120;SDS011;5100;45.176;5.714;2022-12-29T05:07:07;10.03;;;8.60;;
10120;SDS011;5100;45.176;5.714;2022-12-29T05:09:34;9.73;;;8.73;;
10120;SDS011;5100;45.176;5.714;2022-12-29T05:12:00;9.87;;;8.87;;
10120;SDS011;5100;45.176;5.714;2022-12-29T05:14:28;8.90;;;8.07;;
10120;SDS011;5100;45.176;5.714;2022-12-29T05:16:55;10.63;;;9.30;;
10120;SDS011;5100;45.176;5.714;2022-12-29T05:19:21;9.17;;;8.27;;
10120;SDS011;5100;45.176;5.714;2022-12-29T05:21:48;9.87;;;8.97;;
10120;SDS011;5100;45.176;5.714;2022-12-29T05:24:15;11.73;;;9.10;;
10120;SDS011;5100;45.176;5.714;2022-12-29T05:26:41;11.13;;;8.07;;
10120;SDS011;5100;45.176;5.714;2022-12-29T05:29:09;9.17;;;8.27;;
10120;SDS011;5100;45.176;5.714;2022-12-29T05:31:35;9.47;;;8.43;;
10120;SDS011;5100;45.176;5.714;2022-12-29T05:34:02;9.57;;;8.17;;
10120;SDS011;5100;45.176;5.714;2022-12-29T05:36:30;12.77;;;8.50;;
10120;SDS011;5100;45.176;5.714;2022-12-29T05:38:57;8.73;;;7.90;;
10120;SDS011;5100;45.176;5.714;2022-12-29T05:41:24;9.43;;;8.43;;
10120;SDS011;5100;45.176;5.714;2022-12-29T05:43:51;9.60;;;8.57;;
10120;SDS011;5100;45.176;5.714;2022-12-29T05:46:17;9.13;;;8.23;;
10120;SDS011;5100;45.176;5.714;2022-12-29T05:48:44;10.73;;;9.50;;
10120;SDS011;5100;45.176;5.714;2022-12-29T05:51:12;11.30;;;9.37;;
10120;SDS011;5100;45.176;5.714;2022-12-29T05:53:39;9.27;;;8.20;;
10120;SDS011;5100;45.176;5.714;2022-12-29T05:56:05;9.03;;;8.13;;
10120;SDS011;5100;45.176;5.714;2022-12-29T05:58:33;8.30;;;7.50;;
10120;SDS011;5100;45.176;5.714;2022-12-29T06:00:59;8.47;;;7.33;;
10120;SDS011;5100;45.176;5.714;2022-12-29T06:03:26;8.07;;;7.27;;
10120;SDS011;5100;45.176;5.714;2022-12-29T06:05:53;8.27;;;7.47;;
10120;SDS011;5100;45.176;5.714;2022-12-29T06:08:19;9.67;;;7.67;;
10120;SDS011;5100;45.176;5.714;2022-12-29T06:10:47;9.27;;;8.37;;
10120;SDS011;5100;45.176;5.714;2022-12-29T06:13:13;10.10;;;8.53;;
10120;SDS011;5100;45.176;5.714;2022-12-29T06:15:40;9.77;;;7.77;;
10120;SDS011;5100;45.176;5.714;2022-12-29T06:18:07;11.47;;;9.10;;
10120;SDS011;5100;45.176;5.714;2022-12-29T06:20:34;11.43;;;8.70;;
10120;SDS011;5100;45.176;5.714;2022-12-29T06:23:01;9.97;;;8.80;;
10120;SDS011;5100;45.176;5.714;2022-12-29T06:25:29;11.77;;;9.10;;
10120;SDS011;5100;45.176;5.714;2022-12-29T06:27:57;9.93;;;8.93;;
10120;SDS011;5100;45.176;5.714;2022-12-29T06:30:24;9.90;;;8.30;;
10120;SDS011;5100;45.176;5.714;2022-12-29T06:32:51;10.23;;;9.00;;
10120;SDS011;5100;45.176;5.714;2022-12-29T06:35:18;9.53;;;8.27;;
10120;SDS011;5100;45.176;5.714;2022-12-29T06:37:45;9.30;;;8.03;;
10120;SDS011;5100;45.176;5.714;2022-12-29T06:40:11;8.67;;;7.73;;
10120;SDS011;5100;45.176;5.714;2022-12-29T06:42:40;9.90;;;8.20;;
10120;SDS011;5100;45.176;5.714;2022-12-29T06:45:07;8.07;;;7.27;;
10120;SDS011;5100;45.176;5.714;2022-12-29T06:47:34;8.60;;;7.80;;
10120;SDS011;5100;45.176;5.714;2022-12-29T06:50:02;12.03;;;7.70;;
10120;SDS011;5100;45.176;5.714;2022-12-29T06:52:28;8.93;;;6.90;;
10120;SDS011;5100;45.176;5.714;2022-12-29T06:54:55;7.33;;;6.60;;
10120;SDS011;5100;45.176;5.714;2022-12-29T06:57:22;7.50;;;6.80;;
10120;SDS011;5100;45.176;5.714;2022-12-29T06:59:49;8.17;;;7.37;;
10120;SDS011;5100;45.176;5.714;2022-12-29T07:02:15;7.10;;;6.40;;
10120;SDS011;5100;45.176;5.714;2022-12-29T07:04:44;7.70;;;6.90;;
10120;SDS011;5100;45.176;5.714;2022-12-29T07:07:10;6.90;;;6.20;;
10120;SDS011;5100;45.176;5.714;2022-12-29T07:09:37;8.77;;;7.03;;
10120;SDS011;5100;45.176;5.714;2022-12-29T07:12:03;8.07;;;7.00;;
10120;SDS011;5100;45.176;5.714;2022-12-29T07:14:30;7.57;;;6.83;;
10120;SDS011;5100;45.176;5.714;2022-12-29T07:16:57;8.03;;;6.47;;
10120;SDS011;5100;45.176;5.714;2022-12-29T07:19:23;7.73;;;6.60;;
10120;SDS011;5100;45.176;5.714;2022-12-29T07:21:49;8.43;;;6.77;;
10120;SDS011;5100;45.176;5.714;2022-12-29T07:24:16;7.00;;;6.30;;
10120;SDS011;5100;45.176;5.714;2022-12-29T07:26:43;6.90;;;5.40;;
10120;SDS011;5100;45.176;5.714;2022-12-29T07:29:09;8.50;;;5.63;;
10120;SDS011;5100;45.176;5.714;2022-12-29T07:31:36;6.97;;;5.50;;
10120;SDS011;5100;45.176;5.714;2022-12-29T07:34:02;6.63;;;5.90;;
10120;SDS011;5100;45.176;5.714;2022-12-29T07:36:28;6.47;;;5.00;;
10120;SDS011;5100;45.176;5.714;2022-12-29T07:38:55;7.53;;;5.53;;
10120;SDS011;5100;45.176;5.714;2022-12-29T07:41:21;26.07;;;23.47;;
10120;SDS011;5100;45.176;5.714;2022-12-29T07:43:48;6.43;;;5.70;;
10120;SDS011;5100;45.176;5.714;2022-12-29T07:46:20;6.17;;;5.47;;
10120;SDS011;5100;45.176;5.714;2022-12-29T07:48:46;8.50;;;5.40;;
10120;SDS011;5100;45.176;5.714;2022-12-29T07:51:13;6.37;;;4.87;;
10120;SDS011;5100;45.176;5.714;2022-12-29T07:53:39;5.23;;;4.73;;
10120;SDS011;5100;45.176;5.714;2022-12-29T07:56:06;5.97;;;4.60;;
10120;SDS011;5100;45.176;5.714;2022-12-29T07:58:32;7.13;;;5.00;;
10120;SDS011;5100;45.176;5.714;2022-12-29T08:00:59;7.03;;;5.60;;
10120;SDS011;5100;45.176;5.714;2022-12-29T08:03:25;6.53;;;5.40;;
10120;SDS011;5100;45.176;5.714;2022-12-29T08:05:52;6.30;;;5.20;;
10120;SDS011;5100;45.176;5.714;2022-12-29T08:08:18;6.10;;;5.03;;
10120;SDS011;5100;45.176;5.714;2022-12-29T08:10:46;6.53;;;4.93;;
10120;SDS011;5100;45.176;5.714;2022-12-29T08:13:12;6.10;;;5.40;;
10120;SDS011;5100;45.176;5.714;2022-12-29T08:15:39;9.37;;;5.37;;
10120;SDS011;5100;45.176;5.714;2022-12-29T08:18:06;7.90;;;4.73;;
10120;SDS011;5100;45.176;5.714;2022-12-29T08:20:32;8.20;;;4.90;;
10120;SDS011;5100;45.176;5.714;2022-12-29T08:22:58;5.63;;;4.40;;
10120;SDS011;5100;45.176;5.714;2022-12-29T08:25:25;5.57;;;4.87;;
10120;SDS011;5100;45.176;5.714;2022-12-29T08:27:52;8.43;;;5.67;;
10120;SDS011;5100;45.176;5.714;2022-12-29T08:30:18;9.47;;;5.87;;
10120;SDS011;5100;45.176;5.714;2022-12-29T08:32:45;5.87;;;5.00;;
10120;SDS011;5100;45.176;5.714;2022-12-29T08:35:12;7.90;;;5.20;;
10120;SDS011;5100;45.176;5.714;2022-12-29T08:37:38;6.77;;;5.20;;
10120;SDS011;5100;45.176;5.714;2022-12-29T08:40:05;5.70;;;4.53;;
10120;SDS011;5100;45.176;5.714;2022-12-29T08:42:32;7.87;;;4.87;;
10120;SDS011;5100;45.176;5.714;2022-12-29T08:44:59;4.00;;;3.60;;
10120;SDS011;5100;45.176;5.714;2022-12-29T08:47:26;4.60;;;3.80;;
10120;SDS011;5100;45.176;5.714;2022-12-29T08:49:52;4.40;;;3.50;;
10120;SDS011;5100;45.176;5.714;2022-12-29T08:52:19;5.60;;;3.50;;
10120;SDS011;5100;45.176;5.714;2022-12-29T08:54:46;4.40;;;3.67;;
10120;SDS011;5100;45.176;5.714;2022-12-29T08:57:12;4.60;;;4.10;;
10120;SDS011;5100;45.176;5.714;2022-12-29T08:59:39;5.40;;;4.00;;
10120;SDS011;5100;45.176;5.714;2022-12-29T09:02:10;5.60;;;4.93;;
10120;SDS011;5100;45.176;5.714;2022-12-29T09:04:37;5.67;;;4.57;;
10120;SDS011;5100;45.176;5.714;2022-12-29T09:07:03;5.93;;;4.37;;
10120;SDS011;5100;45.176;5.714;2022-12-29T09:09:31;4.97;;;4.33;;
10120;SDS011;5100;45.176;5.714;2022-12-29T09:11:58;6.67;;;4.30;;
10120;SDS011;5100;45.176;5.714;2022-12-29T09:14:24;5.13;;;3.80;;
10120;SDS011;5100;45.176;5.714;2022-12-29T09:16:51;5.20;;;3.70;;
10120;SDS011;5100;45.176;5.714;2022-12-29T09:19:37;7.13;;;3.80;;
10120;SDS011;5100;45.176;5.714;2022-12-29T09:22:03;5.13;;;3.80;;
10120;SDS011;5100;45.176;5.714;2022-12-29T09:24:30;5.13;;;3.80;;
10120;SDS011;5100;45.176;5.714;2022-12-29T09:26:56;4.13;;;3.73;;
10120;SDS011;5100;45.176;5.714;2022-12-29T09:29:23;5.70;;;4.07;;
10120;SDS011;5100;45.176;5.714;2022-12-29T09:31:49;4.40;;;3.87;;
10120;SDS011;5100;45.176;5.714;2022-12-29T09:34:16;5.00;;;3.90;;
10120;SDS011;5100;45.176;5.714;2022-12-29T09:36:42;5.73;;;4.47;;
10120;SDS011;5100;45.176;5.714;2022-12-29T09:39:08;4.63;;;3.97;;
10120;SDS011;5100;45.176;5.714;2022-12-29T09:41:49;6.17;;;4.07;;
10120;SDS011;5100;45.176;5.714;2022-12-29T09:44:30;5.20;;;3.73;;
10120;SDS011;5100;45.176;5.714;2022-12-29T09:47:16;5.23;;;3.90;;
10120;SDS011;5100;45.176;5.714;2022-12-29T09:50:04;4.20;;;3.80;;
10120;SDS011;5100;45.176;5.714;2022-12-29T09:55:37;4.93;;;4.07;;
10120;SDS011;5100;45.176;5.714;2022-12-29T09:58:14;5.77;;;4.10;;
10120;SDS011;5100;45.176;5.714;2022-12-29T10:01:06;4.60;;;4.10;;
10120;SDS011;5100;45.176;5.714;2022-12-29T10:03:52;4.20;;;3.70;;
10120;SDS011;5100;45.176;5.714;2022-12-29T10:14:15;4.93;;;3.53;;
10120;SDS011;5100;45.176;5.714;2022-12-29T10:17:17;5.03;;;3.40;;
10120;SDS011;5100;45.176;5.714;2022-12-29T10:25:41;4.40;;;3.40;;
10120;SDS011;5100;45.176;5.714;2022-12-29T10:28:51;7.43;;;3.77;;
10120;SDS011;5100;45.176;5.714;2022-12-29T10:30:58;8.70;;;3.50;;
10120;SDS011;5100;45.176;5.714;2022-12-29T10:33:30;5.10;;;3.60;;
10120;SDS011;5100;45.176;5.714;2022-12-29T10:36:02;3.30;;;3.00;;
10120;SDS011;5100;45.176;5.714;2022-12-29T10:41:36;4.50;;;3.50;;
10120;SDS011;5100;45.176;5.714;2022-12-29T10:44:08;3.60;;;3.30;;
10120;SDS011;5100;45.176;5.714;2022-12-29T10:46:39;3.73;;;3.23;;
10120;SDS011;5100;45.176;5.714;2022-12-29T10:49:11;4.93;;;3.40;;
10120;SDS011;5100;45.176;5.714;2022-12-29T10:51:42;4.63;;;3.60;;
10120;SDS011;5100;45.176;5.714;2022-12-29T10:57:40;4.07;;;3.67;;
10120;SDS011;5100;45.176;5.714;2022-12-29T11:00:11;6.63;;;3.97;;
10120;SDS011;5100;45.176;5.714;2022-12-29T11:08:10;6.60;;;3.90;;
10120;SDS011;5100;45.176;5.714;2022-12-29T11:10:40;4.27;;;3.80;;
10120;SDS011;5100;45.176;5.714;2022-12-29T11:13:19;4.80;;;4.23;;
10120;SDS011;5100;45.176;5.714;2022-12-29T11:15:52;4.73;;;3.63;;
10120;SDS011;5100;45.176;5.714;2022-12-29T11:21:06;5.77;;;3.87;;
10120;SDS011;5100;45.176;5.714;2022-12-29T11:23:56;4.83;;;3.83;;
10120;SDS011;5100;45.176;5.714;2022-12-29T11:26:27;5.10;;;4.07;;
10120;SDS011;5100;45.176;5.714;2022-12-29T11:31:43;4.67;;;4.20;;
10120;SDS011;5100;45.176;5.714;2022-12-29T11:34:23;4.47;;;4.07;;
10120;SDS011;5100;45.176;5.714;2022-12-29T11:36:57;6.33;;;3.43;;
10120;SDS011;5100;45.176;5.714;2022-12-29T11:42:15;5.73;;;4.00;;
10120;SDS011;5100;45.176;5.714;2022-12-29T11:44:44;4.30;;;3.90;;
10120;SDS011;5100;45.176;5.714;2022-12-29T11:49:54;6.23;;;3.90;;
10120;SDS011;5100;45.176;5.714;2022-12-29T11:52:24;5.23;;;3.67;;
10120;SDS011;5100;45.176;5.714;2022-12-29T11:54:54;4.73;;;3.60;;
10120;SDS011;5100;45.176;5.714;2022-12-29T11:57:22;6.10;;;4.00;;
10120;SDS011;5100;45.176;5.714;2022-12-29T11:59:54;5.00;;;4.07;;
10120;SDS011;5100;45.176;5.714;2022-12-29T12:02:28;4.87;;;4.10;;
10120;SDS011;5100;45.176;5.714;2022-12-29T12:05:21;7.67;;;4.33;;
10120;SDS011;5100;45.176;5.714;2022-12-29T12:08:01;4.50;;;4.07;;
10120;SDS011;5100;45.176;5.714;2022-12-29T12:10:41;5.10;;;3.77;;
10120;SDS011;5100;45.176;5.714;2022-12-29T12:13:20;6.07;;;4.43;;
10120;SDS011;5100;45.176;5.714;2022-12-29T12:16:02;4.87;;;4.30;;
10120;SDS011;5100;45.176;5.714;2022-12-29T12:18:37;7.50;;;4.57;;
10120;SDS011;5100;45.176;5.714;2022-12-29T12:21:25;5.37;;;4.40;;
10120;SDS011;5100;45.176;5.714;2022-12-29T12:27:16;5.93;;;4.50;;
10120;SDS011;5100;45.176;5.714;2022-12-29T12:41:05;11.17;;;6.80;;
10120;SDS011;5100;45.176;5.714;2022-12-29T12:52:11;10.30;;;6.63;;
10120;SDS011;5100;45.176;5.714;2022-12-29T13:00:17;11.23;;;6.30;;
10120;SDS011;5100;45.176;5.714;2022-12-29T13:10:53;6.87;;;4.30;;
10120;SDS011;5100;45.176;5.714;2022-12-29T13:19:13;7.63;;;4.57;;
10120;SDS011;5100;45.176;5.714;2022-12-29T13:21:57;4.70;;;3.83;;
10120;SDS011;5100;45.176;5.714;2022-12-29T13:32:50;5.67;;;4.27;;
10120;SDS011;5100;45.176;5.714;2022-12-29T13:35:53;5.43;;;3.77;;
10120;SDS011;5100;45.176;5.714;2022-12-29T13:38:51;8.37;;;4.40;;
10120;SDS011;5100;45.176;5.714;2022-12-29T13:41:58;4.50;;;3.87;;
10120;SDS011;5100;45.176;5.714;2022-12-29T13:44:35;8.20;;;4.83;;
10120;SDS011;5100;45.176;5.714;2022-12-29T13:47:15;8.17;;;4.27;;
10120;SDS011;5100;45.176;5.714;2022-12-29T13:49:53;8.10;;;4.53;;
10120;SDS011;5100;45.176;5.714;2022-12-29T13:52:25;5.57;;;4.23;;
10120;SDS011;5100;45.176;5.714;2022-12-29T14:03:23;6.20;;;4.67;;
10120;SDS011;5100;45.176;5.714;2022-12-29T14:11:30;5.63;;;4.27;;
10120;SDS011;5100;45.176;5.714;2022-12-29T14:14:13;6.03;;;4.00;;
10120;SDS011;5100;45.176;5.714;2022-12-29T14:16:47;8.53;;;4.30;;
10120;SDS011;5100;45.176;5.714;2022-12-29T14:19:23;6.27;;;4.47;;
10120;SDS011;5100;45.176;5.714;2022-12-29T14:21:59;8.17;;;5.50;;
10120;SDS011;5100;45.176;5.714;2022-12-29T14:26:58;8.13;;;4.57;;
10120;SDS011;5100;45.176;5.714;2022-12-29T14:31:52;6.13;;;4.40;;
10120;SDS011;5100;45.176;5.714;2022-12-29T14:36:54;10.40;;;4.00;;
10120;SDS011;5100;45.176;5.714;2022-12-29T14:44:58;9.13;;;4.23;;
10120;SDS011;5100;45.176;5.714;2022-12-29T14:47:46;7.43;;;3.93;;
10120;SDS011;5100;45.176;5.714;2022-12-29T14:52:51;7.97;;;4.30;;
10120;SDS011;5100;45.176;5.714;2022-12-29T15:00:56;9.03;;;4.13;;
10120;SDS011;5100;45.176;5.714;2022-12-29T15:03:25;9.73;;;3.90;;
10120;SDS011;5100;45.176;5.714;2022-12-29T15:06:18;9.73;;;4.07;;
10120;SDS011;5100;45.176;5.714;2022-12-29T15:13:58;5.87;;;3.97;;
10120;SDS011;5100;45.176;5.714;2022-12-29T15:16:32;5.93;;;3.70;;
10120;SDS011;5100;45.176;5.714;2022-12-29T15:19:02;6.73;;;3.97;;
10120;SDS011;5100;45.176;5.714;2022-12-29T15:21:32;8.97;;;4.00;;
10120;SDS011;5100;45.176;5.714;2022-12-29T15:24:02;6.87;;;4.33;;
10120;SDS011;5100;45.176;5.714;2022-12-29T15:26:37;7.53;;;4.00;;
10120;SDS011;5100;45.176;5.714;2022-12-29T15:29:28;6.95;;;4.03;;
10120;SDS011;5100;45.176;5.714;2022-12-29T15:34:43;7.40;;;4.05;;
10120;SDS011;5100;45.176;5.714;2022-12-29T15:37:16;7.60;;;4.60;;
10120;SDS011;5100;45.176;5.714;2022-12-29T15:39:45;4.60;;;3.93;;
10120;SDS011;5100;45.176;5.714;2022-12-29T15:42:25;7.23;;;4.23;;
10120;SDS011;5100;45.176;5.714;2022-12-29T15:44:58;6.37;;;4.47;;
10120;SDS011;5100;45.176;5.714;2022-12-29T15:47:28;5.77;;;4.80;;
10120;SDS011;5100;45.176;5.714;2022-12-29T15:50:01;5.97;;;4.45;;
10120;SDS011;5100;45.176;5.714;2022-12-29T15:52:32;6.27;;;4.87;;
10120;SDS011;5100;45.176;5.714;2022-12-29T15:55:00;7.20;;;4.70;;
10120;SDS011;5100;45.176;5.714;2022-12-29T15:57:30;6.90;;;4.57;;
10120;SDS011;5100;45.176;5.714;2022-12-29T16:00:03;10.87;;;5.77;;
10120;SDS011;5100;45.176;5.714;2022-12-29T16:02:47;11.63;;;7.10;;
10120;SDS011;5100;45.176;5.714;2022-12-29T16:05:16;9.50;;;5.30;;
10120;SDS011;5100;45.176;5.714;2022-12-29T16:07:54;7.30;;;4.90;;
10120;SDS011;5100;45.176;5.714;2022-12-29T16:10:57;8.13;;;5.40;;
10120;SDS011;5100;45.176;5.714;2022-12-29T16:18:49;6.43;;;4.77;;
10120;SDS011;5100;45.176;5.714;2022-12-29T16:21:22;7.93;;;5.00;;
10120;SDS011;5100;45.176;5.714;2022-12-29T16:24:00;7.80;;;4.90;;
10120;SDS011;5100;45.176;5.714;2022-12-29T16:26:32;9.03;;;5.00;;
10120;SDS011;5100;45.176;5.714;2022-12-29T16:29:01;9.85;;;5.28;;
10120;SDS011;5100;45.176;5.714;2022-12-29T16:36:56;7.97;;;5.55;;
10120;SDS011;5100;45.176;5.714;2022-12-29T16:39:36;6.78;;;6.07;;
10120;SDS011;5100;45.176;5.714;2022-12-29T16:50:31;7.63;;;5.63;;
10120;SDS011;5100;45.176;5.714;2022-12-29T16:53:04;8.87;;;5.37;;
10120;SDS011;5100;45.176;5.714;2022-12-29T16:55:35;11.50;;;6.00;;
10120;SDS011;5100;45.176;5.714;2022-12-29T16:58:02;11.57;;;5.80;;
10120;SDS011;5100;45.176;5.714;2022-12-29T17:00:31;8.90;;;6.00;;
10120;SDS011;5100;45.176;5.714;2022-12-29T17:03:08;8.73;;;5.93;;
10120;SDS011;5100;45.176;5.714;2022-12-29T17:05:36;9.13;;;5.77;;
10120;SDS011;5100;45.176;5.714;2022-12-29T17:08:03;8.20;;;6.17;;
10120;SDS011;5100;45.176;5.714;2022-12-29T17:10:50;9.93;;;5.70;;
10120;SDS011;5100;45.176;5.714;2022-12-29T17:13:38;9.40;;;5.80;;
10120;SDS011;5100;45.176;5.714;2022-12-29T17:16:05;12.13;;;6.13;;
10120;SDS011;5100;45.176;5.714;2022-12-29T17:18:35;10.53;;;6.13;;
10120;SDS011;5100;45.176;5.714;2022-12-29T17:21:02;11.43;;;6.60;;
10120;SDS011;5100;45.176;5.714;2022-12-29T17:23:32;9.67;;;6.10;;
10120;SDS011;5100;45.176;5.714;2022-12-29T17:25:59;8.70;;;6.00;;
10120;SDS011;5100;45.176;5.714;2022-12-29T17:28:28;11.60;;;6.53;;
10120;SDS011;5100;45.176;5.714;2022-12-29T17:31:00;13.73;;;6.37;;
10120;SDS011;5100;45.176;5.714;2022-12-29T17:33:34;11.23;;;7.15;;
10120;SDS011;5100;45.176;5.714;2022-12-29T17:36:07;7.70;;;6.43;;
10120;SDS011;5100;45.176;5.714;2022-12-29T17:38:36;12.57;;;6.90;;
10120;SDS011;5100;45.176;5.714;2022-12-29T17:41:03;13.50;;;7.43;;
10120;SDS011;5100;45.176;5.714;2022-12-29T17:43:34;12.85;;;7.78;;
10120;SDS011;5100;45.176;5.714;2022-12-29T17:46:03;12.43;;;7.03;;
10120;SDS011;5100;45.176;5.714;2022-12-29T17:48:31;10.70;;;7.00;;
10120;SDS011;5100;45.176;5.714;2022-12-29T17:50:57;11.90;;;7.73;;
10120;SDS011;5100;45.176;5.714;2022-12-29T17:53:25;10.43;;;7.40;;
10120;SDS011;5100;45.176;5.714;2022-12-29T17:55:54;10.40;;;7.47;;
10120;SDS011;5100;45.176;5.714;2022-12-29T17:58:25;8.43;;;7.13;;
10120;SDS011;5100;45.176;5.714;2022-12-29T18:03:46;9.57;;;7.30;;
10120;SDS011;5100;45.176;5.714;2022-12-29T18:06:13;12.17;;;7.97;;
10120;SDS011;5100;45.176;5.714;2022-12-29T18:08:42;11.13;;;7.60;;
10120;SDS011;5100;45.176;5.714;2022-12-29T18:11:23;11.23;;;8.30;;
10120;SDS011;5100;45.176;5.714;2022-12-29T18:13:52;11.83;;;8.37;;
10120;SDS011;5100;45.176;5.714;2022-12-29T18:16:20;14.33;;;8.27;;
10120;SDS011;5100;45.176;5.714;2022-12-29T18:18:51;14.60;;;10.10;;
10120;SDS011;5100;45.176;5.714;2022-12-29T18:21:18;13.43;;;8.87;;
10120;SDS011;5100;45.176;5.714;2022-12-29T18:23:47;10.23;;;8.55;;
10120;SDS011;5100;45.176;5.714;2022-12-29T18:28:57;17.70;;;8.50;;